sensor_id;sensor_type;location;lat;lon;timestamp;pressure;altitude;pressure_sealevel;temperature;humidity
51289;BME280;37372;52.294;5.152;2023-04-08T00:02:03;102303.91;;;7.30;90.07
51289;BME280;37372;52.294;5.152;2023-04-08T00:04:39;102309.69;;;7.27;90.32
51289;BME280;37372;52.294;5.152;2023-04-08T00:07:05;102312.13;;;7.22;90.22
51289;BME280;37372;52.294;5.152;2023-04-08T00:09:31;102310.94;;;7.17;90.08
51289;BME280;37372;52.294;5.152;2023-04-08T00:11:57;102315.19;;;7.11;89.92
51289;BME280;37372;52.294;5.152;2023-04-08T00:14:22;102318.78;;;7.03;90.15
51289;BME280;37372;52.294;5.152;2023-04-08T00:16:48;102309.41;;;6.98;89.83
51289;BME280;37372;52.294;5.152;2023-04-08T00:19:14;102318.78;;;6.95;89.99
51289;BME280;37372;52.294;5.152;2023-04-08T00:21:43;102326.44;;;7.00;90.11
51289;BME280;37372;52.294;5.152;2023-04-08T00:27:05;102323.72;;;7.08;90.11
51289;BME280;37372;52.294;5.152;2023-04-08T00:29:31;102325.75;;;7.14;90.06
51289;BME280;37372;52.294;5.152;2023-04-08T00:32:04;102321.00;;;7.16;90.45
51289;BME280;37372;52.294;5.152;2023-04-08T00:34:33;102322.69;;;7.25;90.47
51289;BME280;37372;52.294;5.152;2023-04-08T00:36:58;102322.50;;;7.27;90.17
51289;BME280;37372;52.294;5.152;2023-04-08T00:39:25;102320.47;;;7.29;90.15
51289;BME280;37372;52.294;5.152;2023-04-08T00:41:50;102314.84;;;7.30;90.19
51289;BME280;37372;52.294;5.152;2023-04-08T00:44:21;102323.88;;;7.31;90.01
51289;BME280;37372;52.294;5.152;2023-04-08T00:46:46;102312.78;;;7.32;90.02
51289;BME280;37372;52.294;5.152;2023-04-08T00:49:21;102319.25;;;7.31;89.93
51289;BME280;37372;52.294;5.152;2023-04-08T00:51:47;102322.34;;;7.28;89.72
51289;BME280;37372;52.294;5.152;2023-04-08T00:57:23;102316.22;;;7.18;90.18
51289;BME280;37372;52.294;5.152;2023-04-08T00:59:49;102322.53;;;7.11;90.28
51289;BME280;37372;52.294;5.152;2023-04-08T01:02:25;102326.44;;;7.08;90.37
51289;BME280;37372;52.294;5.152;2023-04-08T01:05:06;102332.94;;;6.99;90.21
51289;BME280;37372;52.294;5.152;2023-04-08T01:07:37;102322.88;;;6.83;89.90
51289;BME280;37372;52.294;5.152;2023-04-08T01:10:14;102328.31;;;6.75;90.40
51289;BME280;37372;52.294;5.152;2023-04-08T01:12:47;102332.91;;;6.66;90.24
51289;BME280;37372;52.294;5.152;2023-04-08T01:15:17;102327.78;;;6.63;90.58
51289;BME280;37372;52.294;5.152;2023-04-08T01:17:55;102329.47;;;6.56;90.53
51289;BME280;37372;52.294;5.152;2023-04-08T01:20:26;102334.94;;;6.48;90.21
51289;BME280;37372;52.294;5.152;2023-04-08T01:25:38;102330.31;;;6.32;89.92
51289;BME280;37372;52.294;5.152;2023-04-08T01:28:28;102338.63;;;6.22;90.67
51289;BME280;37372;52.294;5.152;2023-04-08T01:30:57;102332.47;;;6.20;90.20
51289;BME280;37372;52.294;5.152;2023-04-08T01:36:33;102333.34;;;6.29;91.34
51289;BME280;37372;52.294;5.152;2023-04-08T01:39:11;102331.66;;;6.36;90.96
51289;BME280;37372;52.294;5.152;2023-04-08T01:42:05;102332.38;;;6.38;90.43
51289;BME280;37372;52.294;5.152;2023-04-08T01:44:39;102337.47;;;6.41;90.56
51289;BME280;37372;52.294;5.152;2023-04-08T01:47:10;102335.44;;;6.43;90.64
51289;BME280;37372;52.294;5.152;2023-04-08T01:49:41;102337.84;;;6.46;90.46
51289;BME280;37372;52.294;5.152;2023-04-08T01:52:08;102344.81;;;6.49;90.55
51289;BME280;37372;52.294;5.152;2023-04-08T01:54:59;102336.31;;;6.52;90.70
51289;BME280;37372;52.294;5.152;2023-04-08T01:57:51;102337.34;;;6.59;90.35
51289;BME280;37372;52.294;5.152;2023-04-08T02:00:23;102341.28;;;6.65;90.27
51289;BME280;37372;52.294;5.152;2023-04-08T02:02:50;102339.91;;;6.69;90.51
51289;BME280;37372;52.294;5.152;2023-04-08T02:05:17;102336.69;;;6.73;90.43
51289;BME280;37372;52.294;5.152;2023-04-08T02:07:43;102344.69;;;6.75;90.21
51289;BME280;37372;52.294;5.152;2023-04-08T02:10:12;102337.34;;;6.75;90.12
51289;BME280;37372;52.294;5.152;2023-04-08T02:12:38;102347.09;;;6.78;90.32
51289;BME280;37372;52.294;5.152;2023-04-08T02:15:04;102339.56;;;6.80;90.37
51289;BME280;37372;52.294;5.152;2023-04-08T02:20:10;102348.97;;;6.86;91.11
51289;BME280;37372;52.294;5.152;2023-04-08T02:22:56;102340.97;;;6.84;90.83
51289;BME280;37372;52.294;5.152;2023-04-08T02:25:32;102344.00;;;6.81;90.78
51289;BME280;37372;52.294;5.152;2023-04-08T02:28:02;102351.16;;;6.82;91.55
51289;BME280;37372;52.294;5.152;2023-04-08T02:30:44;102352.72;;;6.85;91.44
51289;BME280;37372;52.294;5.152;2023-04-08T02:33:41;102348.59;;;6.81;91.66
51289;BME280;37372;52.294;5.152;2023-04-08T02:36:16;102350.84;;;6.77;91.33
51289;BME280;37372;52.294;5.152;2023-04-08T02:42:10;102355.09;;;6.79;92.11
51289;BME280;37372;52.294;5.152;2023-04-08T02:44:39;102355.09;;;6.71;91.46
51289;BME280;37372;52.294;5.152;2023-04-08T02:47:08;102358.50;;;6.73;92.77
51289;BME280;37372;52.294;5.152;2023-04-08T02:49:59;102355.44;;;6.76;92.58
51289;BME280;37372;52.294;5.152;2023-04-08T02:52:24;102366.84;;;6.80;92.67
51289;BME280;37372;52.294;5.152;2023-04-08T02:54:59;102363.63;;;6.76;92.19
51289;BME280;37372;52.294;5.152;2023-04-08T02:57:24;102364.31;;;6.78;92.78
51289;BME280;37372;52.294;5.152;2023-04-08T02:59:53;102366.69;;;6.82;92.65
51289;BME280;37372;52.294;5.152;2023-04-08T03:02:18;102366.00;;;6.79;92.48
51289;BME280;37372;52.294;5.152;2023-04-08T03:04:45;102366.66;;;6.65;92.33
51289;BME280;37372;52.294;5.152;2023-04-08T03:07:10;102367.84;;;6.63;91.89
51289;BME280;37372;52.294;5.152;2023-04-08T03:12:46;102375.34;;;6.69;92.50
51289;BME280;37372;52.294;5.152;2023-04-08T03:15:12;102367.03;;;6.70;92.57
51289;BME280;37372;52.294;5.152;2023-04-08T03:17:37;102373.34;;;6.71;92.56
51289;BME280;37372;52.294;5.152;2023-04-08T03:20:12;102364.97;;;6.72;92.36
51289;BME280;37372;52.294;5.152;2023-04-08T03:22:38;102366.66;;;6.73;92.56
51289;BME280;37372;52.294;5.152;2023-04-08T03:25:10;102377.25;;;6.76;92.09
51289;BME280;37372;52.294;5.152;2023-04-08T03:27:36;102375.03;;;6.64;91.92
51289;BME280;37372;52.294;5.152;2023-04-08T03:30:11;102376.69;;;6.57;91.35
51289;BME280;37372;52.294;5.152;2023-04-08T03:32:38;102378.38;;;6.49;91.42
51289;BME280;37372;52.294;5.152;2023-04-08T03:35:04;102379.41;;;6.48;91.02
51289;BME280;37372;52.294;5.152;2023-04-08T03:37:30;102378.91;;;6.45;91.04
51289;BME280;37372;52.294;5.152;2023-04-08T03:40:12;102380.41;;;6.47;91.45
51289;BME280;37372;52.294;5.152;2023-04-08T03:42:37;102380.59;;;6.46;91.31
51289;BME280;37372;52.294;5.152;2023-04-08T03:45:20;102390.97;;;6.42;91.10
51289;BME280;37372;52.294;5.152;2023-04-08T03:47:46;102383.63;;;6.35;90.69
51289;BME280;37372;52.294;5.152;2023-04-08T03:50:11;102390.06;;;6.26;90.47
51289;BME280;37372;52.294;5.152;2023-04-08T03:52:36;102402.47;;;6.20;90.39
51289;BME280;37372;52.294;5.152;2023-04-08T03:57:55;102398.25;;;5.91;89.82
51289;BME280;37372;52.294;5.152;2023-04-08T04:04:05;102406.78;;;5.70;90.05
51289;BME280;37372;52.294;5.152;2023-04-08T04:06:36;102409.75;;;5.59;89.78
51289;BME280;37372;52.294;5.152;2023-04-08T04:15:39;102409.22;;;5.30;89.68
51289;BME280;37372;52.294;5.152;2023-04-08T04:18:24;102415.56;;;5.21;89.55
51289;BME280;37372;52.294;5.152;2023-04-08T04:20:53;102421.97;;;5.11;89.45
51289;BME280;37372;52.294;5.152;2023-04-08T04:23:21;102426.84;;;5.08;89.40
51289;BME280;37372;52.294;5.152;2023-04-08T04:25:59;102424.91;;;5.00;88.83
51289;BME280;37372;52.294;5.152;2023-04-08T04:28:26;102421.28;;;4.92;88.91
51289;BME280;37372;52.294;5.152;2023-04-08T04:30:51;102428.47;;;4.83;88.56
51289;BME280;37372;52.294;5.152;2023-04-08T04:33:17;102426.41;;;4.77;89.26
51289;BME280;37372;52.294;5.152;2023-04-08T04:35:54;102424.31;;;4.71;89.07
51289;BME280;37372;52.294;5.152;2023-04-08T04:38:20;102428.31;;;4.67;88.77
51289;BME280;37372;52.294;5.152;2023-04-08T04:40:53;102427.63;;;4.65;88.60
51289;BME280;37372;52.294;5.152;2023-04-08T04:43:19;102427.22;;;4.59;88.60
51289;BME280;37372;52.294;5.152;2023-04-08T04:45:44;102427.69;;;4.55;88.33
51289;BME280;37372;52.294;5.152;2023-04-08T04:48:10;102429.88;;;4.51;88.41
51289;BME280;37372;52.294;5.152;2023-04-08T04:50:36;102440.59;;;4.43;87.96
51289;BME280;37372;52.294;5.152;2023-04-08T04:53:02;102435.66;;;4.39;88.33
51289;BME280;37372;52.294;5.152;2023-04-08T04:55:27;102448.50;;;4.37;88.41
51289;BME280;37372;52.294;5.152;2023-04-08T04:58:02;102446.13;;;4.33;87.70
51289;BME280;37372;52.294;5.152;2023-04-08T05:00:48;102445.53;;;4.30;87.97
51289;BME280;37372;52.294;5.152;2023-04-08T05:03:14;102448.00;;;4.23;87.55
51289;BME280;37372;52.294;5.152;2023-04-08T05:05:40;102446.63;;;4.19;87.36
51289;BME280;37372;52.294;5.152;2023-04-08T05:08:05;102443.63;;;4.13;86.86
51289;BME280;37372;52.294;5.152;2023-04-08T05:10:35;102452.22;;;4.08;87.64
51289;BME280;37372;52.294;5.152;2023-04-08T05:13:01;102446.22;;;4.04;87.47
51289;BME280;37372;52.294;5.152;2023-04-08T05:15:27;102452.81;;;4.02;87.44
51289;BME280;37372;52.294;5.152;2023-04-08T05:17:52;102449.53;;;3.98;86.84
51289;BME280;37372;52.294;5.152;2023-04-08T05:20:19;102456.97;;;3.96;86.82
51289;BME280;37372;52.294;5.152;2023-04-08T05:23:06;102459.25;;;4.01;85.75
51289;BME280;37372;52.294;5.152;2023-04-08T05:25:38;102469.84;;;3.94;85.72
51289;BME280;37372;52.294;5.152;2023-04-08T05:28:07;102464.28;;;3.96;85.75
51289;BME280;37372;52.294;5.152;2023-04-08T05:31:01;102478.69;;;3.96;85.65
51289;BME280;37372;52.294;5.152;2023-04-08T05:33:47;102470.72;;;3.95;85.63
51289;BME280;37372;52.294;5.152;2023-04-08T05:36:13;102473.56;;;3.93;85.17
51289;BME280;37372;52.294;5.152;2023-04-08T05:38:39;102474.28;;;3.95;85.63
51289;BME280;37372;52.294;5.152;2023-04-08T05:41:08;102474.81;;;3.99;85.33
51289;BME280;37372;52.294;5.152;2023-04-08T05:43:40;102478.09;;;4.02;85.05
51289;BME280;37372;52.294;5.152;2023-04-08T05:46:07;102476.41;;;4.01;84.51
51289;BME280;37372;52.294;5.152;2023-04-08T05:48:56;102480.50;;;4.05;85.19
51289;BME280;37372;52.294;5.152;2023-04-08T05:51:35;102487.09;;;4.13;84.76
51289;BME280;37372;52.294;5.152;2023-04-08T05:54:09;102489.06;;;4.20;84.04
51289;BME280;37372;52.294;5.152;2023-04-08T05:56:53;102494.94;;;4.16;84.45
51289;BME280;37372;52.294;5.152;2023-04-08T06:00:08;102500.47;;;4.24;84.02
51289;BME280;37372;52.294;5.152;2023-04-08T06:02:26;102499.88;;;4.30;82.71
51289;BME280;37372;52.294;5.152;2023-04-08T06:04:58;102506.28;;;4.39;82.58
51289;BME280;37372;52.294;5.152;2023-04-08T06:07:31;102498.53;;;4.44;82.55
51289;BME280;37372;52.294;5.152;2023-04-08T06:09:57;102500.97;;;4.47;82.33
51289;BME280;37372;52.294;5.152;2023-04-08T06:12:22;102509.97;;;4.47;81.41
51289;BME280;37372;52.294;5.152;2023-04-08T06:14:53;102510.22;;;4.54;81.11
51289;BME280;37372;52.294;5.152;2023-04-08T06:17:29;102506.34;;;4.56;80.88
51289;BME280;37372;52.294;5.152;2023-04-08T06:19:54;102515.75;;;4.62;80.67
51289;BME280;37372;52.294;5.152;2023-04-08T06:22:23;102525.84;;;4.70;80.64
51289;BME280;37372;52.294;5.152;2023-04-08T06:24:58;102526.44;;;4.73;80.78
51289;BME280;37372;52.294;5.152;2023-04-08T06:28:00;102522.69;;;4.74;79.70
51289;BME280;37372;52.294;5.152;2023-04-08T06:31:10;102527.97;;;4.76;78.44
51289;BME280;37372;52.294;5.152;2023-04-08T06:33:36;102538.84;;;4.76;78.44
51289;BME280;37372;52.294;5.152;2023-04-08T06:36:06;102538.81;;;4.85;78.19
51289;BME280;37372;52.294;5.152;2023-04-08T06:38:38;102540.44;;;4.78;78.45
51289;BME280;37372;52.294;5.152;2023-04-08T06:41:37;102537.81;;;4.86;77.58
51289;BME280;37372;52.294;5.152;2023-04-08T06:44:41;102544.09;;;4.87;77.91
51289;BME280;37372;52.294;5.152;2023-04-08T06:49:51;102549.34;;;4.98;78.54
51289;BME280;37372;52.294;5.152;2023-04-08T06:52:16;102549.97;;;5.10;76.91
51289;BME280;37372;52.294;5.152;2023-04-08T06:57:55;102562.41;;;5.12;77.25
51289;BME280;37372;52.294;5.152;2023-04-08T07:00:24;102553.63;;;5.19;77.05
51289;BME280;37372;52.294;5.152;2023-04-08T07:02:53;102560.41;;;5.32;76.52
51289;BME280;37372;52.294;5.152;2023-04-08T07:05:18;102567.56;;;5.33;77.13
51289;BME280;37372;52.294;5.152;2023-04-08T07:07:43;102574.22;;;5.21;75.64
51289;BME280;37372;52.294;5.152;2023-04-08T07:10:18;102567.72;;;5.32;75.21
51289;BME280;37372;52.294;5.152;2023-04-08T07:12:43;102571.63;;;5.29;75.34
51289;BME280;37372;52.294;5.152;2023-04-08T07:15:09;102577.53;;;5.42;75.78
51289;BME280;37372;52.294;5.152;2023-04-08T07:17:35;102578.63;;;5.50;75.42
51289;BME280;37372;52.294;5.152;2023-04-08T07:20:04;102575.91;;;5.50;75.18
51289;BME280;37372;52.294;5.152;2023-04-08T07:22:35;102583.00;;;5.60;76.16
51289;BME280;37372;52.294;5.152;2023-04-08T07:25:04;102578.00;;;5.56;74.69
51289;BME280;37372;52.294;5.152;2023-04-08T07:27:33;102583.91;;;5.51;76.18
51289;BME280;37372;52.294;5.152;2023-04-08T07:29:59;102586.38;;;5.44;75.69
51289;BME280;37372;52.294;5.152;2023-04-08T07:32:25;102593.50;;;5.55;76.40
51289;BME280;37372;52.294;5.152;2023-04-08T07:34:58;102588.50;;;5.68;75.50
51289;BME280;37372;52.294;5.152;2023-04-08T07:37:30;102598.78;;;5.75;75.77
51289;BME280;37372;52.294;5.152;2023-04-08T07:40:12;102597.81;;;5.84;76.93
51289;BME280;37372;52.294;5.152;2023-04-08T07:42:37;102597.66;;;5.85;75.06
51289;BME280;37372;52.294;5.152;2023-04-08T07:45:05;102596.75;;;5.77;75.48
51289;BME280;37372;52.294;5.152;2023-04-08T07:47:31;102603.84;;;5.87;76.72
51289;BME280;37372;52.294;5.152;2023-04-08T07:49:57;102595.56;;;5.79;75.70
51289;BME280;37372;52.294;5.152;2023-04-08T07:52:22;102601.25;;;5.86;75.57
51289;BME280;37372;52.294;5.152;2023-04-08T07:54:48;102604.31;;;6.01;75.76
51289;BME280;37372;52.294;5.152;2023-04-08T07:57:14;102611.13;;;6.05;76.83
51289;BME280;37372;52.294;5.152;2023-04-08T07:59:43;102618.31;;;6.06;75.42
51289;BME280;37372;52.294;5.152;2023-04-08T08:02:16;102614.72;;;6.05;75.97
51289;BME280;37372;52.294;5.152;2023-04-08T08:04:51;102613.09;;;6.12;75.98
51289;BME280;37372;52.294;5.152;2023-04-08T08:07:17;102614.66;;;5.97;73.79
51289;BME280;37372;52.294;5.152;2023-04-08T08:10:04;102611.53;;;6.10;75.53
51289;BME280;37372;52.294;5.152;2023-04-08T08:12:34;102612.47;;;6.18;76.17
51289;BME280;37372;52.294;5.152;2023-04-08T08:15:01;102608.59;;;6.29;76.56
51289;BME280;37372;52.294;5.152;2023-04-08T08:17:26;102618.34;;;6.32;75.62
51289;BME280;37372;52.294;5.152;2023-04-08T08:20:12;102619.00;;;6.26;75.00
51289;BME280;37372;52.294;5.152;2023-04-08T08:22:41;102621.09;;;6.32;75.76
51289;BME280;37372;52.294;5.152;2023-04-08T08:25:08;102632.78;;;6.50;74.86
51289;BME280;37372;52.294;5.152;2023-04-08T08:27:34;102639.31;;;6.57;76.14
51289;BME280;37372;52.294;5.152;2023-04-08T08:30:01;102636.50;;;6.75;74.84
51289;BME280;37372;52.294;5.152;2023-04-08T08:32:32;102630.59;;;6.54;72.14
51289;BME280;37372;52.294;5.152;2023-04-08T08:34:57;102632.72;;;6.42;74.72
51289;BME280;37372;52.294;5.152;2023-04-08T08:37:22;102625.25;;;6.70;74.78
51289;BME280;37372;52.294;5.152;2023-04-08T08:42:26;102638.94;;;6.78;72.31
51289;BME280;37372;52.294;5.152;2023-04-08T08:44:51;102635.75;;;6.91;72.66
51289;BME280;37372;52.294;5.152;2023-04-08T08:47:19;102640.84;;;6.86;72.47
51289;BME280;37372;52.294;5.152;2023-04-08T08:49:46;102633.84;;;6.83;71.92
51289;BME280;37372;52.294;5.152;2023-04-08T08:52:15;102639.72;;;6.96;72.38
51289;BME280;37372;52.294;5.152;2023-04-08T08:54:57;102645.38;;;7.03;71.62
51289;BME280;37372;52.294;5.152;2023-04-08T08:57:23;102645.38;;;7.03;71.80
51289;BME280;37372;52.294;5.152;2023-04-08T08:59:49;102648.59;;;7.06;71.88
51289;BME280;37372;52.294;5.152;2023-04-08T09:02:26;102646.22;;;7.03;71.67
51289;BME280;37372;52.294;5.152;2023-04-08T09:05:00;102650.84;;;7.11;72.95
51289;BME280;37372;52.294;5.152;2023-04-08T09:07:30;102653.44;;;7.21;71.58
51289;BME280;37372;52.294;5.152;2023-04-08T09:09:58;102652.66;;;7.37;73.40
51289;BME280;37372;52.294;5.152;2023-04-08T09:12:24;102653.16;;;7.40;71.29
51289;BME280;37372;52.294;5.152;2023-04-08T09:15:07;102650.97;;;7.36;69.55
51289;BME280;37372;52.294;5.152;2023-04-08T09:17:37;102653.97;;;7.24;70.49
51289;BME280;37372;52.294;5.152;2023-04-08T09:20:25;102652.66;;;7.37;70.95
51289;BME280;37372;52.294;5.152;2023-04-08T09:22:59;102657.00;;;7.55;71.12
51289;BME280;37372;52.294;5.152;2023-04-08T09:25:26;102658.31;;;7.43;70.73
51289;BME280;37372;52.294;5.152;2023-04-08T09:28:01;102661.06;;;7.43;70.11
51289;BME280;37372;52.294;5.152;2023-04-08T09:30:27;102663.31;;;7.56;70.54
51289;BME280;37372;52.294;5.152;2023-04-08T09:33:19;102655.09;;;7.48;69.35
51289;BME280;37372;52.294;5.152;2023-04-08T09:35:44;102661.81;;;7.70;71.71
51289;BME280;37372;52.294;5.152;2023-04-08T09:38:10;102668.47;;;7.67;68.66
51289;BME280;37372;52.294;5.152;2023-04-08T09:40:37;102663.19;;;7.82;68.96
51289;BME280;37372;52.294;5.152;2023-04-08T09:43:08;102660.09;;;7.77;69.82
51289;BME280;37372;52.294;5.152;2023-04-08T09:45:41;102673.94;;;7.75;68.70
51289;BME280;37372;52.294;5.152;2023-04-08T09:48:17;102670.34;;;7.75;69.38
51289;BME280;37372;52.294;5.152;2023-04-08T09:50:49;102670.91;;;7.95;70.92
51289;BME280;37372;52.294;5.152;2023-04-08T09:55:52;102668.34;;;7.93;68.37
51289;BME280;37372;52.294;5.152;2023-04-08T09:58:28;102671.22;;;7.92;68.78
51289;BME280;37372;52.294;5.152;2023-04-08T10:00:57;102668.34;;;8.01;69.56
51289;BME280;37372;52.294;5.152;2023-04-08T10:03:33;102669.53;;;8.23;70.67
51289;BME280;37372;52.294;5.152;2023-04-08T10:06:00;102666.13;;;8.05;67.55
51289;BME280;37372;52.294;5.152;2023-04-08T10:08:26;102655.22;;;8.13;69.07
51289;BME280;37372;52.294;5.152;2023-04-08T10:10:53;102658.59;;;8.23;70.03
51289;BME280;37372;52.294;5.152;2023-04-08T10:13:19;102654.53;;;8.52;70.87
51289;BME280;37372;52.294;5.152;2023-04-08T10:15:46;102651.78;;;8.44;67.88
51289;BME280;37372;52.294;5.152;2023-04-08T10:23:12;102649.41;;;8.57;67.41
51289;BME280;37372;52.294;5.152;2023-04-08T10:26:05;102652.63;;;8.60;66.32
51289;BME280;37372;52.294;5.152;2023-04-08T10:32:00;102648.00;;;8.61;66.33
51289;BME280;37372;52.294;5.152;2023-04-08T10:34:26;102645.94;;;8.63;67.92
51289;BME280;37372;52.294;5.152;2023-04-08T10:36:54;102648.66;;;8.79;67.47
51289;BME280;37372;52.294;5.152;2023-04-08T10:39:20;102652.78;;;8.75;66.20
51289;BME280;37372;52.294;5.152;2023-04-08T10:41:56;102639.94;;;8.76;65.96
51289;BME280;37372;52.294;5.152;2023-04-08T10:44:29;102639.94;;;8.84;65.37
51289;BME280;37372;52.294;5.152;2023-04-08T10:46:55;102641.28;;;8.96;66.35
51289;BME280;37372;52.294;5.152;2023-04-08T10:49:32;102637.09;;;9.16;65.88
51289;BME280;37372;52.294;5.152;2023-04-08T10:52:07;102635.16;;;9.25;64.94
51289;BME280;37372;52.294;5.152;2023-04-08T10:54:45;102624.47;;;9.38;64.35
51289;BME280;37372;52.294;5.152;2023-04-08T10:57:35;102630.22;;;9.52;65.41
51289;BME280;37372;52.294;5.152;2023-04-08T11:00:02;102630.59;;;9.48;66.20
51289;BME280;37372;52.294;5.152;2023-04-08T11:02:37;102624.75;;;9.52;64.47
51289;BME280;37372;52.294;5.152;2023-04-08T11:05:26;102626.50;;;9.44;63.52
51289;BME280;37372;52.294;5.152;2023-04-08T11:07:52;102633.69;;;9.45;62.40
51289;BME280;37372;52.294;5.152;2023-04-08T11:10:20;102633.19;;;9.42;61.89
51289;BME280;37372;52.294;5.152;2023-04-08T11:12:46;102632.78;;;9.53;62.11
51289;BME280;37372;52.294;5.152;2023-04-08T11:15:20;102633.16;;;9.50;60.61
51289;BME280;37372;52.294;5.152;2023-04-08T11:17:47;102640.56;;;9.95;63.51
51289;BME280;37372;52.294;5.152;2023-04-08T11:20:32;102632.81;;;9.76;58.58
51289;BME280;37372;52.294;5.152;2023-04-08T11:23:13;102635.75;;;9.74;60.23
51289;BME280;37372;52.294;5.152;2023-04-08T11:25:41;102629.75;;;9.71;60.97
51289;BME280;37372;52.294;5.152;2023-04-08T11:28:07;102626.38;;;9.92;62.29
51289;BME280;37372;52.294;5.152;2023-04-08T11:30:38;102626.22;;;9.85;60.55
51289;BME280;37372;52.294;5.152;2023-04-08T11:33:12;102636.31;;;9.93;61.86
51289;BME280;37372;52.294;5.152;2023-04-08T11:35:49;102639.75;;;10.10;64.45
51289;BME280;37372;52.294;5.152;2023-04-08T11:38:16;102630.94;;;9.99;62.73
51289;BME280;37372;52.294;5.152;2023-04-08T11:40:52;102635.31;;;10.09;63.97
51289;BME280;37372;52.294;5.152;2023-04-08T11:43:32;102630.88;;;10.08;64.33
51289;BME280;37372;52.294;5.152;2023-04-08T11:46:11;102640.03;;;10.23;65.24
51289;BME280;37372;52.294;5.152;2023-04-08T11:48:37;102629.16;;;10.29;64.13
51289;BME280;37372;52.294;5.152;2023-04-08T11:51:28;102641.88;;;10.30;63.52
51289;BME280;37372;52.294;5.152;2023-04-08T11:53:53;102633.75;;;10.37;63.24
51289;BME280;37372;52.294;5.152;2023-04-08T11:56:22;102637.44;;;10.44;65.35
51289;BME280;37372;52.294;5.152;2023-04-08T11:58:48;102631.69;;;10.69;62.84
51289;BME280;37372;52.294;5.152;2023-04-08T12:01:13;102638.22;;;10.68;59.68
51289;BME280;37372;52.294;5.152;2023-04-08T12:03:58;102639.75;;;10.85;60.65
51289;BME280;37372;52.294;5.152;2023-04-08T12:06:29;102639.47;;;10.95;59.11
51289;BME280;37372;52.294;5.152;2023-04-08T12:08:55;102650.56;;;11.16;60.61
51289;BME280;37372;52.294;5.152;2023-04-08T12:11:21;102646.69;;;10.96;58.69
51289;BME280;37372;52.294;5.152;2023-04-08T12:13:47;102647.59;;;10.88;60.45
51289;BME280;37372;52.294;5.152;2023-04-08T12:16:23;102644.31;;;10.93;60.26
51289;BME280;37372;52.294;5.152;2023-04-08T12:18:58;102653.50;;;10.85;62.30
51289;BME280;37372;52.294;5.152;2023-04-08T12:21:24;102648.75;;;10.64;63.59
51289;BME280;37372;52.294;5.152;2023-04-08T12:23:50;102650.22;;;10.52;63.33
51289;BME280;37372;52.294;5.152;2023-04-08T12:26:17;102635.66;;;10.66;63.83
51289;BME280;37372;52.294;5.152;2023-04-08T12:28:45;102642.78;;;10.90;64.40
51289;BME280;37372;52.294;5.152;2023-04-08T12:31:11;102643.75;;;10.82;61.04
51289;BME280;37372;52.294;5.152;2023-04-08T12:33:36;102640.84;;;10.61;61.69
51289;BME280;37372;52.294;5.152;2023-04-08T12:36:02;102640.84;;;10.61;63.51
51289;BME280;37372;52.294;5.152;2023-04-08T12:38:27;102643.34;;;10.71;62.50
51289;BME280;37372;52.294;5.152;2023-04-08T12:41:00;102648.19;;;10.83;63.03
51289;BME280;37372;52.294;5.152;2023-04-08T12:43:28;102637.00;;;10.70;61.49
51289;BME280;37372;52.294;5.152;2023-04-08T12:45:57;102641.00;;;10.97;59.99
51289;BME280;37372;52.294;5.152;2023-04-08T12:48:28;102648.47;;;11.03;58.16
51289;BME280;37372;52.294;5.152;2023-04-08T12:50:54;102636.59;;;11.32;60.45
51289;BME280;37372;52.294;5.152;2023-04-08T12:53:23;102645.44;;;10.98;56.94
51289;BME280;37372;52.294;5.152;2023-04-08T12:55:52;102645.06;;;11.01;56.30
51289;BME280;37372;52.294;5.152;2023-04-08T12:58:29;102648.31;;;11.56;54.39
51289;BME280;37372;52.294;5.152;2023-04-08T13:00:58;102640.41;;;11.82;53.68
51289;BME280;37372;52.294;5.152;2023-04-08T13:03:24;102637.84;;;12.24;51.41
51289;BME280;37372;52.294;5.152;2023-04-08T13:05:51;102636.72;;;12.39;53.25
51289;BME280;37372;52.294;5.152;2023-04-08T13:08:19;102639.16;;;12.56;51.74
51289;BME280;37372;52.294;5.152;2023-04-08T13:10:44;102638.88;;;11.65;51.71
51289;BME280;37372;52.294;5.152;2023-04-08T13:13:09;102644.59;;;11.63;53.03
51289;BME280;37372;52.294;5.152;2023-04-08T13:15:47;102645.31;;;11.36;50.61
51289;BME280;37372;52.294;5.152;2023-04-08T13:18:18;102644.69;;;11.04;49.89
51289;BME280;37372;52.294;5.152;2023-04-08T13:20:44;102640.69;;;11.73;46.51
51289;BME280;37372;52.294;5.152;2023-04-08T13:23:13;102636.41;;;11.70;49.22
51289;BME280;37372;52.294;5.152;2023-04-08T13:25:53;102642.72;;;11.49;48.72
51289;BME280;37372;52.294;5.152;2023-04-08T13:28:19;102643.66;;;10.91;52.97
51289;BME280;37372;52.294;5.152;2023-04-08T13:30:45;102642.03;;;11.11;52.18
51289;BME280;37372;52.294;5.152;2023-04-08T13:33:11;102641.53;;;11.37;51.78
51289;BME280;37372;52.294;5.152;2023-04-08T13:35:43;102633.47;;;11.35;53.56
51289;BME280;37372;52.294;5.152;2023-04-08T13:38:09;102641.75;;;11.21;54.71
51289;BME280;37372;52.294;5.152;2023-04-08T13:40:52;102648.19;;;11.13;58.43
51289;BME280;37372;52.294;5.152;2023-04-08T13:43:21;102636.31;;;10.68;60.47
51289;BME280;37372;52.294;5.152;2023-04-08T13:48:42;102637.84;;;11.00;60.46
51289;BME280;37372;52.294;5.152;2023-04-08T13:51:12;102639.56;;;11.16;60.07
51289;BME280;37372;52.294;5.152;2023-04-08T13:53:37;102635.19;;;11.36;59.33
51289;BME280;37372;52.294;5.152;2023-04-08T13:56:04;102636.78;;;11.31;60.70
51289;BME280;37372;52.294;5.152;2023-04-08T13:58:29;102633.59;;;11.63;59.25
51289;BME280;37372;52.294;5.152;2023-04-08T14:01:02;102639.19;;;11.04;60.04
51289;BME280;37372;52.294;5.152;2023-04-08T14:03:31;102637.38;;;11.11;61.33
51289;BME280;37372;52.294;5.152;2023-04-08T14:05:56;102635.50;;;10.97;62.75
51289;BME280;37372;52.294;5.152;2023-04-08T14:08:22;102639.00;;;11.06;61.98
51289;BME280;37372;52.294;5.152;2023-04-08T14:11:00;102640.44;;;11.02;61.93
51289;BME280;37372;52.294;5.152;2023-04-08T14:13:25;102636.13;;;10.55;62.35
51289;BME280;37372;52.294;5.152;2023-04-08T14:15:55;102629.53;;;10.79;62.19